createdAt,value
2018-09-11T00:00:30.651Z,7.70
2018-09-11T00:02:59.330Z,8.10
2018-09-11T00:05:27.969Z,7.00
2018-09-11T00:07:56.646Z,11.83
2018-09-11T00:10:25.364Z,6.27
2018-09-11T00:12:54.033Z,10.20
2018-09-11T00:15:22.856Z,7.27
2018-09-11T00:17:51.491Z,8.90
2018-09-11T00:20:20.120Z,9.53
2018-09-11T00:22:48.755Z,6.17
2018-09-11T00:25:17.373Z,23.03
2018-09-11T00:27:45.998Z,9.87
2018-09-11T00:30:14.576Z,10.93
2018-09-11T00:32:43.541Z,13.03
2018-09-11T00:35:12.159Z,7.60
2018-09-11T00:37:40.800Z,9.17
2018-09-11T00:40:09.488Z,9.33
2018-09-11T00:42:38.138Z,9.67
2018-09-11T00:45:06.939Z,7.27
2018-09-11T00:47:35.534Z,10.57
2018-09-11T00:50:04.284Z,9.80
2018-09-11T00:52:32.888Z,8.33
2018-09-11T00:55:01.563Z,9.93
2018-09-11T00:57:30.179Z,10.70
2018-09-11T00:59:58.817Z,8.10
2018-09-11T01:02:27.636Z,10.90
2018-09-11T01:04:56.270Z,8.30
2018-09-11T01:07:24.857Z,8.63
2018-09-11T01:09:53.450Z,8.60
2018-09-11T01:12:22.057Z,11.37
2018-09-11T01:14:50.683Z,9.13
2018-09-11T01:17:19.321Z,9.23
2018-09-11T01:19:47.955Z,12.93
2018-09-11T01:22:16.546Z,9.67
2018-09-11T01:24:45.171Z,10.23
2018-09-11T01:27:13.749Z,13.47
2018-09-11T01:29:42.330Z,11.17
2018-09-11T01:32:10.919Z,11.80
2018-09-11T01:34:39.571Z,8.90
2018-09-11T01:37:08.208Z,8.60
2018-09-11T01:39:36.792Z,8.50
2018-09-11T01:42:05.416Z,13.13
2018-09-11T01:44:34.002Z,11.33
2018-09-11T01:47:02.639Z,11.87
2018-09-11T01:49:31.523Z,10.07
2018-09-11T01:52:00.108Z,10.70
2018-09-11T01:54:28.703Z,9.53
2018-09-11T01:56:57.301Z,13.67
2018-09-11T01:59:25.931Z,11.87
2018-09-11T02:01:54.549Z,14.03
2018-09-11T02:04:23.176Z,14.93
2018-09-11T02:06:51.803Z,13.17
2018-09-11T02:09:20.413Z,17.67
2018-09-11T02:11:49.068Z,13.67
2018-09-11T02:14:17.704Z,11.53
2018-09-11T02:16:46.317Z,13.37
2018-09-11T02:19:14.933Z,11.53
2018-09-11T02:21:43.592Z,13.53
2018-09-11T02:24:12.217Z,12.60
2018-09-11T02:26:40.834Z,13.73
2018-09-11T02:29:09.411Z,10.73
2018-09-11T02:31:38.048Z,9.80
2018-09-11T02:34:07.136Z,10.93
2018-09-11T02:36:35.768Z,9.00
2018-09-11T02:39:06.081Z,12.83
2018-09-11T02:41:34.712Z,11.17
2018-09-11T02:44:03.700Z,8.77
2018-09-11T02:46:32.344Z,10.47
2018-09-11T02:49:00.883Z,11.73
2018-09-11T02:51:29.486Z,11.27
2018-09-11T02:53:58.029Z,9.30
2018-09-11T02:56:26.599Z,9.50
2018-09-11T02:58:55.172Z,9.43
2018-09-11T03:01:23.815Z,11.60
2018-09-11T03:03:52.446Z,13.03
2018-09-11T03:06:21.185Z,12.17
2018-09-11T03:08:49.820Z,10.67
2018-09-11T03:11:18.407Z,11.03
2018-09-11T03:13:47.033Z,16.13
2018-09-11T03:16:15.616Z,12.23
2018-09-11T03:18:44.319Z,12.73
2018-09-11T03:21:12.920Z,10.73
2018-09-11T03:23:41.534Z,11.13
2018-09-11T03:26:10.548Z,13.87
2018-09-11T03:28:39.123Z,14.60
2018-09-11T03:31:07.725Z,12.57
2018-09-11T03:33:36.334Z,15.13
2018-09-11T03:36:04.857Z,16.07
2018-09-11T03:38:33.447Z,15.33
2018-09-11T03:41:02.065Z,17.37
2018-09-11T03:43:30.665Z,15.73
2018-09-11T03:45:59.282Z,17.10
2018-09-11T03:48:27.911Z,16.60
2018-09-11T03:50:56.489Z,13.83
2018-09-11T03:53:25.079Z,11.60
2018-09-11T03:55:53.708Z,17.67
2018-09-11T03:58:22.434Z,11.77
2018-09-11T04:00:50.947Z,13.70
2018-09-11T04:03:19.516Z,12.70
2018-09-11T04:05:48.155Z,12.43
2018-09-11T04:08:16.757Z,12.13
2018-09-11T04:10:45.462Z,15.43
2018-09-11T04:13:14.072Z,15.07
2018-09-11T04:15:42.751Z,18.70
2018-09-11T04:18:11.391Z,16.20
2018-09-11T04:20:39.999Z,13.83
2018-09-11T04:23:08.557Z,12.03
2018-09-11T04:25:37.533Z,18.57
2018-09-11T04:28:06.126Z,14.63
2018-09-11T04:30:34.724Z,12.73
2018-09-11T04:33:03.319Z,13.17
2018-09-11T04:35:31.958Z,11.30
2018-09-11T04:38:00.585Z,15.90
2018-09-11T04:40:29.287Z,15.70
2018-09-11T04:42:57.946Z,17.53
2018-09-11T04:45:26.583Z,15.73
2018-09-11T04:47:55.127Z,16.20
2018-09-11T04:50:23.687Z,15.43
2018-09-11T04:52:52.287Z,14.77
2018-09-11T04:55:20.880Z,16.67
2018-09-11T04:57:49.467Z,11.93
2018-09-11T05:00:18.020Z,12.10
2018-09-11T05:02:46.524Z,14.60
2018-09-11T05:05:15.049Z,11.60
2018-09-11T05:07:43.628Z,15.57
2018-09-11T05:10:12.136Z,12.30
2018-09-11T05:12:40.665Z,11.80
2018-09-11T05:15:09.402Z,13.47
2018-09-11T05:17:38.053Z,17.97
2018-09-11T05:20:06.616Z,14.43
2018-09-11T05:22:35.178Z,12.83
2018-09-11T05:25:03.855Z,14.43
2018-09-11T05:27:32.654Z,12.17
2018-09-11T05:30:01.199Z,13.87
2018-09-11T05:32:29.812Z,11.27
2018-09-11T05:35:04.119Z,12.43
2018-09-11T05:37:32.708Z,12.43
2018-09-11T05:40:01.294Z,11.20
2018-09-11T05:42:29.863Z,10.10
2018-09-11T05:44:58.380Z,17.77
2018-09-11T05:47:26.967Z,10.90
2018-09-11T05:49:55.570Z,8.77
2018-09-11T05:52:24.120Z,13.07
2018-09-11T05:54:52.740Z,23.40
2018-09-11T05:57:21.282Z,15.43
2018-09-11T05:59:49.793Z,11.13
2018-09-11T06:02:18.343Z,12.07
2018-09-11T06:04:46.831Z,9.73
2018-09-11T06:07:15.374Z,13.43
2018-09-11T06:09:43.880Z,12.17
2018-09-11T06:12:12.482Z,10.43
2018-09-11T06:14:40.990Z,15.13
2018-09-11T06:17:09.515Z,17.20
2018-09-11T06:19:38.006Z,8.73
2018-09-11T06:22:06.551Z,7.62
2018-09-11T06:24:35.048Z,9.28
2018-09-11T06:27:03.580Z,9.55
2018-09-11T06:29:32.060Z,9.05
2018-09-11T06:32:00.571Z,8.40
2018-09-11T06:34:29.080Z,10.40
2018-09-11T06:36:57.648Z,7.72
2018-09-11T06:39:26.171Z,11.83
2018-09-11T06:41:54.663Z,8.85
2018-09-11T06:44:23.138Z,13.22
2018-09-11T06:46:51.647Z,7.70
2018-09-11T06:49:20.123Z,8.60
2018-09-11T06:51:48.624Z,9.83
2018-09-11T06:54:17.107Z,6.42
2018-09-11T06:56:45.623Z,8.70
2018-09-11T06:59:14.108Z,10.85
2018-09-11T07:01:42.659Z,8.05
2018-09-11T07:04:11.110Z,8.28
2018-09-11T07:06:39.631Z,8.73
2018-09-11T07:09:09.760Z,10.38
2018-09-11T07:11:38.320Z,7.28
2018-09-11T07:14:06.915Z,8.63
2018-09-11T07:16:35.451Z,6.37
2018-09-11T07:19:03.939Z,8.03
2018-09-11T07:21:32.448Z,7.15
2018-09-11T07:24:00.934Z,8.20
2018-09-11T07:26:29.450Z,7.28
2018-09-11T07:28:57.919Z,15.80
2018-09-11T07:31:26.472Z,10.68
2018-09-11T07:33:54.920Z,8.63
2018-09-11T07:36:23.471Z,8.60
2018-09-11T07:38:51.943Z,7.92
2018-09-11T07:41:20.502Z,6.97
2018-09-11T07:43:48.967Z,7.95
2018-09-11T07:46:17.492Z,7.10
2018-09-11T07:48:45.996Z,10.68
2018-09-11T07:51:14.549Z,12.60
2018-09-11T07:53:43.052Z,10.05
2018-09-11T07:56:11.584Z,6.33
2018-09-11T07:58:40.105Z,13.22
2018-09-11T08:01:08.632Z,6.45
2018-09-11T08:03:37.116Z,7.50
2018-09-11T08:06:05.643Z,7.22
2018-09-11T08:08:34.159Z,7.00
2018-09-11T08:11:02.640Z,9.48
2018-09-11T08:13:31.206Z,6.37
2018-09-11T08:15:59.696Z,6.75
2018-09-11T08:18:28.203Z,10.68
2018-09-11T08:20:56.679Z,8.18
2018-09-11T08:23:25.184Z,9.75
2018-09-11T08:25:53.672Z,6.28
2018-09-11T08:28:22.165Z,5.00
2018-09-11T08:30:50.633Z,7.90
2018-09-11T08:33:19.160Z,6.58
2018-09-11T08:35:47.666Z,6.50
2018-09-11T08:38:16.171Z,6.20
2018-09-11T08:40:44.627Z,10.58
2018-09-11T08:43:13.375Z,5.33
2018-09-11T08:45:41.887Z,7.55
2018-09-11T08:48:10.383Z,7.87
2018-09-11T08:50:38.912Z,10.38
2018-09-11T08:53:07.407Z,10.98
2018-09-11T08:55:35.919Z,7.92
2018-09-11T08:58:04.610Z,7.85
2018-09-11T09:00:33.088Z,6.25
2018-09-11T09:03:01.600Z,10.40
2018-09-11T09:05:30.106Z,7.78
2018-09-11T09:07:58.611Z,10.08
2018-09-11T09:10:27.477Z,4.87
2018-09-11T09:12:56.042Z,6.83
2018-09-11T09:15:24.567Z,6.95
2018-09-11T09:17:53.105Z,5.05
2018-09-11T09:20:21.600Z,5.12
2018-09-11T09:22:50.131Z,6.03
2018-09-11T09:25:18.624Z,4.92
2018-09-11T09:27:47.468Z,6.90
2018-09-11T09:30:15.976Z,5.60
2018-09-11T09:32:44.502Z,4.87
2018-09-11T09:35:12.991Z,5.37
2018-09-11T09:37:41.499Z,5.85
2018-09-11T09:40:10.013Z,6.42
2018-09-11T09:42:38.517Z,4.40
2018-09-11T09:45:08.427Z,7.35
2018-09-11T09:47:36.936Z,8.15
2018-09-11T09:50:05.485Z,4.87
2018-09-11T09:52:33.984Z,5.30
2018-09-11T09:55:02.484Z,5.17
2018-09-11T09:57:31.060Z,5.47
2018-09-11T09:59:59.551Z,3.45
2018-09-11T10:02:28.079Z,3.77
2018-09-11T10:04:56.626Z,4.05
2018-09-11T10:07:25.157Z,5.12
2018-09-11T10:09:54.142Z,6.65
2018-09-11T10:12:22.645Z,4.55
2018-09-11T10:14:51.147Z,5.45
2018-09-11T10:17:19.643Z,5.08
2018-09-11T10:19:52.158Z,3.72
2018-09-11T10:22:20.663Z,4.03
2018-09-11T10:24:49.194Z,3.55
2018-09-11T10:27:17.759Z,4.95
2018-09-11T10:29:46.243Z,6.83
2018-09-11T10:32:14.740Z,3.65
2018-09-11T10:34:43.236Z,5.12
2018-09-11T10:37:11.769Z,3.15
2018-09-11T10:39:40.239Z,4.92
2018-09-11T10:42:08.780Z,7.80
2018-09-11T10:44:37.280Z,4.53
2018-09-11T10:47:05.808Z,4.37
2018-09-11T10:49:34.336Z,8.80
2018-09-11T10:52:02.880Z,8.65
2018-09-11T10:54:31.402Z,5.10
2018-09-11T10:56:59.919Z,5.55
2018-09-11T10:59:28.432Z,6.60
2018-09-11T11:01:56.940Z,4.40
2018-09-11T11:04:25.487Z,4.92
2018-09-11T11:06:54.004Z,6.03
2018-09-11T11:09:22.502Z,6.25
2018-09-11T11:11:50.990Z,5.67
2018-09-11T11:14:19.512Z,3.17
2018-09-11T11:16:48.048Z,4.65
2018-09-11T11:19:16.570Z,3.20
2018-09-11T11:21:45.074Z,5.60
2018-09-11T11:24:13.911Z,7.78
2018-09-11T11:26:42.416Z,4.50
2018-09-11T11:29:10.931Z,3.33
2018-09-11T11:31:39.426Z,3.80
2018-09-11T11:34:07.927Z,9.83
2018-09-11T11:36:36.519Z,5.70
2018-09-11T11:39:08.053Z,4.42
2018-09-11T11:41:36.561Z,4.97
2018-09-11T11:44:05.083Z,2.65
2018-09-11T11:46:33.569Z,4.45
2018-09-11T11:49:02.067Z,3.62
2018-09-11T11:51:30.565Z,2.90
2018-09-11T11:53:59.060Z,5.58
2018-09-11T11:56:27.796Z,6.50
2018-09-11T11:58:56.440Z,3.70
2018-09-11T12:01:24.927Z,4.00
2018-09-11T12:03:53.472Z,4.33
2018-09-11T12:06:21.983Z,3.77
2018-09-11T12:08:50.493Z,4.90
2018-09-11T12:11:19.039Z,3.70
2018-09-11T12:13:47.556Z,3.72
2018-09-11T12:16:16.069Z,5.28
2018-09-11T12:18:44.552Z,5.10
2018-09-11T12:21:13.040Z,6.10
2018-09-11T12:23:41.559Z,4.62
2018-09-11T12:26:10.082Z,4.25
2018-09-11T12:28:38.592Z,3.92
2018-09-11T12:31:07.132Z,5.00
2018-09-11T12:33:35.631Z,4.22
2018-09-11T12:36:04.166Z,2.87
2018-09-11T12:38:32.808Z,4.90
2018-09-11T12:41:01.331Z,5.35
2018-09-11T12:43:29.836Z,3.10
2018-09-11T12:45:58.483Z,4.72
2018-09-11T12:48:26.990Z,6.10
2018-09-11T12:50:55.391Z,6.42
2018-09-11T12:53:23.957Z,10.13
2018-09-11T12:55:52.455Z,5.25
2018-09-11T12:58:20.996Z,3.05
2018-09-11T13:00:49.477Z,4.87
2018-09-11T13:03:18.008Z,4.37
2018-09-11T13:05:46.495Z,5.03
2018-09-11T13:08:14.987Z,4.35
2018-09-11T13:10:43.506Z,7.65
2018-09-11T13:13:12.054Z,5.08
2018-09-11T13:15:40.523Z,4.95
2018-09-11T13:18:09.056Z,9.45
2018-09-11T13:20:37.580Z,6.53
2018-09-11T13:23:06.079Z,10.28
2018-09-11T13:25:34.572Z,3.83
2018-09-11T13:28:03.082Z,6.62
2018-09-11T13:30:31.579Z,4.08
2018-09-11T13:33:00.107Z,4.35
2018-09-11T13:35:28.611Z,4.65
2018-09-11T13:37:57.164Z,8.83
2018-09-11T13:40:25.915Z,5.55
2018-09-11T13:42:54.458Z,5.92
2018-09-11T13:45:23.007Z,4.22
2018-09-11T13:47:51.562Z,5.95
2018-09-11T13:50:20.041Z,6.55
2018-09-11T13:52:48.584Z,5.45
2018-09-11T13:55:17.080Z,5.15
2018-09-11T13:57:45.719Z,6.58
2018-09-11T14:00:14.225Z,6.25
2018-09-11T14:02:42.771Z,5.53
2018-09-11T14:05:11.376Z,6.33
2018-09-11T14:07:39.916Z,5.33
2018-09-11T14:10:08.428Z,5.55
2018-09-11T14:12:36.955Z,7.37
2018-09-11T14:15:05.766Z,5.10
2018-09-11T14:17:34.266Z,3.83
2018-09-11T14:20:02.923Z,7.17
2018-09-11T14:22:31.425Z,8.25
2018-09-11T14:24:59.952Z,4.00
2018-09-11T14:27:28.472Z,5.08
2018-09-11T14:29:57.028Z,4.40
2018-09-11T14:32:25.591Z,4.10
2018-09-11T14:34:54.114Z,3.02
2018-09-11T14:37:22.612Z,7.33
2018-09-11T14:39:51.184Z,4.50
2018-09-11T14:42:19.699Z,4.85
2018-09-11T14:44:48.221Z,4.92
2018-09-11T14:47:16.711Z,5.30
2018-09-11T14:49:45.244Z,5.70
2018-09-11T14:52:13.748Z,6.62
2018-09-11T14:54:42.251Z,7.00
2018-09-11T14:57:10.756Z,5.65
2018-09-11T14:59:39.287Z,5.03
2018-09-11T15:02:07.814Z,4.05
2018-09-11T15:04:36.363Z,5.72
2018-09-11T15:07:04.941Z,8.00
2018-09-11T15:09:33.478Z,5.90
2018-09-11T15:12:01.984Z,4.33
2018-09-11T15:14:30.500Z,9.20
2018-09-11T15:16:58.982Z,5.03
2018-09-11T15:19:27.528Z,11.15
2018-09-11T15:21:56.035Z,7.33
2018-09-11T15:24:24.543Z,7.65
2018-09-11T15:26:53.644Z,5.33
2018-09-11T15:29:22.163Z,8.23
2018-09-11T15:31:50.682Z,4.42
2018-09-11T15:34:19.176Z,6.12
2018-09-11T15:36:47.667Z,11.18
2018-09-11T15:39:16.464Z,11.30
2018-09-11T15:41:45.834Z,5.55
2018-09-11T15:44:14.363Z,9.20
2018-09-11T15:46:42.843Z,4.47
2018-09-11T15:49:11.357Z,4.95
2018-09-11T15:51:39.860Z,6.05
2018-09-11T15:54:08.693Z,4.60
2018-09-11T15:56:37.297Z,7.67
2018-09-11T15:59:05.842Z,8.00
2018-09-11T16:01:34.379Z,6.53
2018-09-11T16:04:02.931Z,7.55
2018-09-11T16:06:31.490Z,5.17
2018-09-11T16:09:00.011Z,4.75
2018-09-11T16:11:28.519Z,5.60
2018-09-11T16:13:57.052Z,8.58
2018-09-11T16:16:25.552Z,5.47
2018-09-11T16:18:54.091Z,4.12
2018-09-11T16:21:22.585Z,5.10
2018-09-11T16:23:51.148Z,8.65
2018-09-11T16:26:19.667Z,4.55
2018-09-11T16:28:48.172Z,6.65
2018-09-11T16:31:16.672Z,5.17
2018-09-11T16:33:45.219Z,7.80
2018-09-11T16:36:13.733Z,3.85
2018-09-11T16:38:42.249Z,6.97
2018-09-11T16:41:10.829Z,10.48
2018-09-11T16:43:39.338Z,6.00
2018-09-11T16:46:07.840Z,9.20
2018-09-11T16:48:36.360Z,6.70
2018-09-11T16:51:04.881Z,7.40
2018-09-11T16:53:33.442Z,8.80
2018-09-11T16:56:02.157Z,3.85
2018-09-11T16:58:30.715Z,3.70
2018-09-11T17:00:59.214Z,6.12
2018-09-11T17:03:27.759Z,4.83
2018-09-11T17:05:56.277Z,7.37
2018-09-11T17:08:24.787Z,5.45
2018-09-11T17:10:53.326Z,4.83
2018-09-11T17:13:21.848Z,4.80
2018-09-11T17:15:50.379Z,7.55
2018-09-11T17:18:18.867Z,6.03
2018-09-11T17:20:47.367Z,6.78
2018-09-11T17:23:15.861Z,6.25
2018-09-11T17:25:44.368Z,4.92
2018-09-11T17:28:12.968Z,5.97
2018-09-11T17:30:41.511Z,3.70
2018-09-11T17:33:10.036Z,5.80
2018-09-11T17:35:38.612Z,8.80
2018-09-11T17:38:07.152Z,4.75
2018-09-11T17:40:35.659Z,8.68
2018-09-11T17:43:04.144Z,5.60
2018-09-11T17:45:32.663Z,6.67
2018-09-11T17:48:01.184Z,7.17
2018-09-11T17:50:29.692Z,9.70
2018-09-11T17:52:58.208Z,5.12
2018-09-11T17:55:27.739Z,7.67
2018-09-11T17:57:56.236Z,10.15
2018-09-11T18:00:24.765Z,4.90
2018-09-11T18:02:53.312Z,5.40
2018-09-11T18:05:21.787Z,8.88
2018-09-11T18:07:50.328Z,14.65
2018-09-11T18:10:18.867Z,11.33
2018-09-11T18:12:47.388Z,6.90
2018-09-11T18:15:15.918Z,6.58
2018-09-11T18:17:44.427Z,8.68
2018-09-11T18:20:12.986Z,12.13
2018-09-11T18:22:41.523Z,5.95
2018-09-11T18:25:10.102Z,12.73
2018-09-11T18:27:38.656Z,8.80
2018-09-11T18:30:07.360Z,8.55
2018-09-11T18:32:35.859Z,10.72
2018-09-11T18:35:04.421Z,6.53
2018-09-11T18:37:32.924Z,7.58
2018-09-11T18:40:01.471Z,7.85
2018-09-11T18:42:29.976Z,11.70
2018-09-11T18:44:58.546Z,7.90
2018-09-11T18:47:27.056Z,8.88
2018-09-11T18:49:55.848Z,7.35
2018-09-11T18:52:24.339Z,10.75
2018-09-11T18:54:52.888Z,9.23
2018-09-11T18:57:21.403Z,12.25
2018-09-11T18:59:49.907Z,9.00
2018-09-11T19:02:18.427Z,10.35
2018-09-11T19:04:46.975Z,8.23
2018-09-11T19:07:15.491Z,10.25
2018-09-11T19:09:44.027Z,7.33
2018-09-11T19:12:12.588Z,7.10
2018-09-11T19:14:41.112Z,8.08
2018-09-11T19:17:09.598Z,8.25
2018-09-11T19:19:38.120Z,9.88
2018-09-11T19:22:06.705Z,8.45
2018-09-11T19:24:35.239Z,6.87
2018-09-11T19:27:03.776Z,8.60
2018-09-11T19:29:32.308Z,9.78
2018-09-11T19:32:00.807Z,8.60
2018-09-11T19:34:29.323Z,8.40
2018-09-11T19:36:57.816Z,7.30
2018-09-11T19:39:26.323Z,8.50
2018-09-11T19:41:54.813Z,12.43
2018-09-11T19:44:23.322Z,8.30
2018-09-11T19:46:51.964Z,6.90
2018-09-11T19:49:20.515Z,11.40
2018-09-11T19:51:49.027Z,8.40
2018-09-11T19:54:17.572Z,7.75
2018-09-11T19:56:46.095Z,8.70
2018-09-11T19:59:14.635Z,6.60
2018-09-11T20:01:43.207Z,7.67
2018-09-11T20:04:11.731Z,8.28
2018-09-11T20:06:40.266Z,8.58
2018-09-11T20:09:10.237Z,7.12
2018-09-11T20:11:38.850Z,9.30
2018-09-11T20:14:07.363Z,10.80
2018-09-11T20:16:36.326Z,10.32
2018-09-11T20:19:05.333Z,8.73
2018-09-11T20:21:34.063Z,9.43
2018-09-11T20:24:02.611Z,9.45
2018-09-11T20:26:31.167Z,10.78
2018-09-11T20:28:59.803Z,9.08
2018-09-11T20:31:28.388Z,9.90
2018-09-11T20:33:57.292Z,8.08
2018-09-11T20:36:25.828Z,8.98
2018-09-11T20:38:54.350Z,9.18
2018-09-11T20:41:22.891Z,10.28
2018-09-11T20:43:51.455Z,6.95
2018-09-11T20:46:20.038Z,10.48
2018-09-11T20:48:48.581Z,10.95
2018-09-11T20:51:17.112Z,8.23
2018-09-11T20:53:45.626Z,10.85
2018-09-11T20:56:14.159Z,9.90
2018-09-11T20:58:42.719Z,8.38
2018-09-11T21:01:11.338Z,8.60
2018-09-11T21:03:39.832Z,9.25
2018-09-11T21:06:08.421Z,11.70
2018-09-11T21:08:37.004Z,8.50
2018-09-11T21:11:06.473Z,9.78
2018-09-11T21:13:34.995Z,8.03
2018-09-11T21:16:03.543Z,11.40
2018-09-11T21:18:32.034Z,15.30
2018-09-11T21:21:00.580Z,9.90
2018-09-11T21:23:29.124Z,9.40
2018-09-11T21:25:57.647Z,11.33
2018-09-11T21:28:26.179Z,9.10
2018-09-11T21:30:54.699Z,8.65
2018-09-11T21:33:23.231Z,9.58
2018-09-11T21:35:51.751Z,8.03
2018-09-11T21:38:20.254Z,10.08
2018-09-11T21:40:48.812Z,9.90
2018-09-11T21:43:17.351Z,12.40
2018-09-11T21:45:45.894Z,7.70
2018-09-11T21:48:14.450Z,8.08
2018-09-11T21:50:42.982Z,7.92
2018-09-11T21:53:11.516Z,11.73
2018-09-11T21:55:40.067Z,11.78
2018-09-11T21:58:08.592Z,14.75
2018-09-11T22:00:41.332Z,11.90
2018-09-11T22:03:09.844Z,17.98
2018-09-11T22:05:38.652Z,11.03
2018-09-11T22:08:07.151Z,10.53
2018-09-11T22:10:35.668Z,12.68
2018-09-11T22:13:04.183Z,11.43
2018-09-11T22:15:32.723Z,11.93
2018-09-11T22:18:01.251Z,13.60
2018-09-11T22:20:29.784Z,11.53
2018-09-11T22:22:58.292Z,9.87
2018-09-11T22:25:26.840Z,10.45
2018-09-11T22:27:55.381Z,11.80
2018-09-11T22:30:23.907Z,10.55
2018-09-11T22:32:52.415Z,11.88
2018-09-11T22:35:20.950Z,10.32
2018-09-11T22:37:49.447Z,12.03
2018-09-11T22:40:18.537Z,11.63
2018-09-11T22:42:47.401Z,9.98
2018-09-11T22:45:15.916Z,11.03
2018-09-11T22:47:44.435Z,12.00
2018-09-11T22:50:13.271Z,9.13
2018-09-11T22:52:41.803Z,12.35
2018-09-11T22:55:10.343Z,13.13
2018-09-11T22:57:38.884Z,11.78
2018-09-11T23:00:07.432Z,12.43
2018-09-11T23:02:35.943Z,10.38
2018-09-11T23:05:04.501Z,13.07
2018-09-11T23:07:33.050Z,10.83
2018-09-11T23:10:01.552Z,10.90
2018-09-11T23:12:30.060Z,11.67
2018-09-11T23:14:58.595Z,12.75
2018-09-11T23:17:27.147Z,12.23
2018-09-11T23:19:55.736Z,10.47
2018-09-11T23:22:24.332Z,10.68
2018-09-11T23:24:52.848Z,11.20
2018-09-11T23:27:21.415Z,12.98
2018-09-11T23:29:49.946Z,11.33
2018-09-11T23:32:18.504Z,12.53
2018-09-11T23:34:47.038Z,11.83
2018-09-11T23:37:15.590Z,11.40
2018-09-11T23:39:44.166Z,15.70
2018-09-11T23:42:12.740Z,14.67
2018-09-11T23:44:41.262Z,13.10
2018-09-11T23:47:09.830Z,12.13
2018-09-11T23:49:38.348Z,11.43
2018-09-11T23:52:06.906Z,13.23
2018-09-11T23:54:35.465Z,12.67
2018-09-11T23:57:04.076Z,15.47
2018-09-11T23:59:32.606Z,12.23
